台北 の空港の天気 - METARとTAF

台湾桃園国際空港 ( RCTP / TPE ) - 台湾 台北市
飛行場実況気象(Metar)
観測時間05/29 06:30 CST (05/28 22:30 UTC)
風向・風速南 4m/s
視程10km以上
天気現象
少しの雲 雲底高度 370m
全天の4割程度の雲 雲底高度 6100m
気温26℃
湿度94%
気圧1006hPa
METARRCTP 282230Z 17007KT 9999 FEW012 SCT200 26/25 Q1006 NOSIG RMK A2973
過去の天気等 Google飛行場航空写真 Wunderground天気予報

過去48時間のMETAR

飛行場予報(TAF)
発表時間: 5/29 01:00 CST (5/28 17:00 UTC)
予報対象時間: 29日2時 CST ~ 30日8時 CST
風向・風速南 4m/s
視程10km以上
少しの雲 雲底高度 460m
全天の8割程度の雲 雲底高度 980m
29日4時 CST ~ 29日8時 CST に一時的に
風向・風速南南東 3m/s
少しの雲 雲底高度 150m
全天の8割程度の雲 雲底高度 240m
29日11時 CST ~ 29日17時 CST に一時的に
風向・風速西 6m/s
30日2時 CST ~ 30日8時 CST に一時的に
視程5000m
天気現象もや
少しの雲 雲底高度 150m
全天の8割程度の雲 雲底高度 240m
TAF RCTP 281700Z 2818/2924 19008KT 9999 FEW015 BKN032
TEMPO 2820/2824 16005KT FEW005 BKN008
TEMPO 2903/2909 28012KT
TEMPO 2918/2924 5000 BR FEW005 BKN008